createdAt,value
2017-08-04T00:01:03.815Z,96470.96
2017-08-04T00:03:29.766Z,96470.88
2017-08-04T00:05:55.642Z,96471.67
2017-08-04T00:08:21.648Z,96474.44
2017-08-04T00:10:47.489Z,96473.08
2017-08-04T00:13:13.440Z,96467.67
2017-08-04T00:15:39.304Z,96460.55
2017-08-04T00:18:05.128Z,96458.77
2017-08-04T00:20:30.988Z,96458.76
2017-08-04T00:22:56.879Z,96456.42
2017-08-04T00:25:22.894Z,96456.85
2017-08-04T00:27:48.800Z,96460.44
2017-08-04T00:30:14.629Z,96458.08
2017-08-04T00:32:40.442Z,96453.59
2017-08-04T00:35:06.314Z,96451.46
2017-08-04T00:37:32.199Z,96457.58
2017-08-04T00:39:58.108Z,96460.07
2017-08-04T00:42:23.925Z,96456.66
2017-08-04T00:44:49.771Z,96458.38
2017-08-04T00:47:15.769Z,96456.41
2017-08-04T00:49:41.636Z,96461.06
2017-08-04T00:52:07.529Z,96455.27
2017-08-04T00:54:33.968Z,96450.76
2017-08-04T00:56:59.856Z,96441.50
2017-08-04T00:59:25.671Z,96456.31
2017-08-04T01:01:51.694Z,96468.79
2017-08-04T01:04:17.560Z,96464.19
2017-08-04T01:06:43.500Z,96459.16
2017-08-04T01:09:09.307Z,96466.42
2017-08-04T01:11:35.116Z,96464.84
2017-08-04T01:14:00.995Z,96449.45
2017-08-04T01:16:27.051Z,96467.81
2017-08-04T01:18:52.952Z,96461.38
2017-08-04T01:21:18.808Z,96467.31
2017-08-04T01:23:44.700Z,96460.23
2017-08-04T01:26:10.618Z,96457.98
2017-08-04T01:28:36.444Z,96465.68
2017-08-04T01:31:02.375Z,96465.34
2017-08-04T01:33:28.280Z,96463.77
2017-08-04T01:35:54.217Z,96470.25
2017-08-04T01:38:20.160Z,96466.16
2017-08-04T01:40:45.989Z,96470.89
2017-08-04T01:43:11.868Z,96466.47
2017-08-04T01:45:37.780Z,96466.16
2017-08-04T01:48:03.614Z,96465.72
2017-08-04T01:50:29.458Z,96468.05
2017-08-04T01:52:55.319Z,96465.48
2017-08-04T01:55:21.164Z,96465.64
2017-08-04T01:57:47.088Z,96459.84
2017-08-04T02:00:12.979Z,96454.61
2017-08-04T02:02:38.819Z,96456.52
2017-08-04T02:05:04.753Z,96462.81
2017-08-04T02:07:30.635Z,96459.14
2017-08-04T02:09:56.514Z,96457.31
2017-08-04T02:12:22.414Z,96454.27
2017-08-04T02:14:48.839Z,96458.30
2017-08-04T02:17:14.710Z,96454.04
2017-08-04T02:19:40.572Z,96452.54
2017-08-04T02:22:06.511Z,96448.66
2017-08-04T02:24:32.334Z,96441.96
2017-08-04T02:26:58.216Z,96447.34
2017-08-04T02:29:24.033Z,96440.61
2017-08-04T02:31:50.083Z,96445.93
2017-08-04T02:34:16.022Z,96441.00
2017-08-04T02:36:41.931Z,96434.23
2017-08-04T02:39:07.919Z,96436.70
2017-08-04T02:41:33.767Z,96437.81
2017-08-04T02:43:59.699Z,96438.51
2017-08-04T02:46:25.610Z,96430.39
2017-08-04T02:48:51.525Z,96433.66
2017-08-04T02:51:17.347Z,96438.14
2017-08-04T02:53:43.216Z,96436.97
2017-08-04T02:56:09.044Z,96440.09
2017-08-04T02:58:34.880Z,96439.11
2017-08-04T03:01:00.861Z,96436.91
2017-08-04T03:03:26.711Z,96436.84
2017-08-04T03:05:52.533Z,96444.03
2017-08-04T03:08:18.343Z,96437.91
2017-08-04T03:10:44.189Z,96434.69
2017-08-04T03:13:10.152Z,96439.44
2017-08-04T03:15:36.081Z,96442.98
2017-08-04T03:18:01.964Z,96443.13
2017-08-04T03:20:27.834Z,96432.70
2017-08-04T03:22:53.680Z,96433.76
2017-08-04T03:25:19.533Z,96432.47
2017-08-04T03:27:45.443Z,96435.44
2017-08-04T03:30:11.388Z,96430.30
2017-08-04T03:32:37.279Z,96436.52
2017-08-04T03:35:03.151Z,96440.58
2017-08-04T03:37:29.020Z,96441.27
2017-08-04T03:39:54.975Z,96443.70
2017-08-04T03:42:20.844Z,96436.41
2017-08-04T03:44:46.664Z,96441.21
2017-08-04T03:47:12.532Z,96438.14
2017-08-04T03:49:38.420Z,96438.12
2017-08-04T03:52:04.330Z,96431.59
2017-08-04T03:54:30.172Z,96427.93
2017-08-04T03:56:56.116Z,96435.41
2017-08-04T03:59:21.973Z,96433.59
2017-08-04T04:01:47.831Z,96440.01
2017-08-04T04:04:13.735Z,96437.31
2017-08-04T04:06:39.547Z,96437.68
2017-08-04T04:09:05.410Z,96445.14
2017-08-04T04:11:31.211Z,96444.19
2017-08-04T04:13:57.024Z,96443.55
2017-08-04T04:16:22.908Z,96439.26
2017-08-04T04:18:48.713Z,96445.17
2017-08-04T04:21:14.553Z,96446.97
2017-08-04T04:23:40.544Z,96445.70
2017-08-04T04:26:06.318Z,96441.83
2017-08-04T04:28:32.149Z,96444.14
2017-08-04T04:30:58.004Z,96439.52
2017-08-04T04:33:23.819Z,96443.64
2017-08-04T04:35:49.614Z,96436.05
2017-08-04T04:38:15.432Z,96441.98
2017-08-04T04:40:41.325Z,96436.81
2017-08-04T04:43:07.149Z,96439.95
2017-08-04T04:45:33.067Z,96444.34
2017-08-04T04:47:58.874Z,96445.00
2017-08-04T04:50:24.696Z,96441.94
2017-08-04T04:52:50.568Z,96441.23
2017-08-04T04:55:16.394Z,96445.19
2017-08-04T04:57:42.174Z,96440.48
2017-08-04T05:00:07.977Z,96442.98
2017-08-04T05:02:33.808Z,96446.16
2017-08-04T05:04:59.683Z,96442.12
2017-08-04T05:07:25.461Z,96450.64
2017-08-04T05:09:51.289Z,96451.11
2017-08-04T05:12:17.284Z,96457.77
2017-08-04T05:14:43.081Z,96458.31
2017-08-04T05:17:08.924Z,96451.29
2017-08-04T05:19:34.720Z,96470.57
2017-08-04T05:22:00.555Z,96461.16
2017-08-04T05:24:26.377Z,96464.70
2017-08-04T05:26:52.152Z,96455.55
2017-08-04T05:29:18.097Z,96451.66
2017-08-04T05:31:43.893Z,96451.13
2017-08-04T05:34:09.765Z,96464.72
2017-08-04T05:36:35.644Z,96456.86
2017-08-04T05:39:01.446Z,96464.34
2017-08-04T05:41:27.292Z,96461.34
2017-08-04T05:43:53.329Z,96461.77
2017-08-04T05:46:19.316Z,96461.58
2017-08-04T05:48:45.138Z,96458.66
2017-08-04T05:51:10.926Z,96456.77
2017-08-04T05:53:36.740Z,96459.52
2017-08-04T05:56:02.554Z,96465.61
2017-08-04T05:58:28.437Z,96474.08
2017-08-04T06:00:54.280Z,96476.45
2017-08-04T06:03:20.209Z,96482.38
2017-08-04T06:05:46.084Z,96478.72
2017-08-04T06:08:12.079Z,96481.21
2017-08-04T06:10:37.907Z,96479.42
2017-08-04T06:13:03.732Z,96486.30
2017-08-04T06:15:29.557Z,96480.28
2017-08-04T06:17:55.352Z,96488.08
2017-08-04T06:20:21.178Z,96489.02
2017-08-04T06:22:46.998Z,96486.33
2017-08-04T06:25:12.854Z,96488.83
2017-08-04T06:27:38.762Z,96487.45
2017-08-04T06:30:04.650Z,96493.75
2017-08-04T06:32:30.477Z,96494.62
2017-08-04T06:34:56.331Z,96501.25
2017-08-04T06:37:22.123Z,96496.33
2017-08-04T06:39:47.936Z,96499.09
2017-08-04T06:42:13.849Z,96502.13
2017-08-04T06:44:39.826Z,96498.64
2017-08-04T06:47:05.727Z,96496.69
2017-08-04T06:49:43.911Z,96491.31
2017-08-04T06:52:21.910Z,96504.08
2017-08-04T06:54:59.885Z,96497.02
2017-08-04T06:57:25.776Z,96499.11
2017-08-04T06:59:51.568Z,96490.44
2017-08-04T07:02:17.364Z,96493.83
2017-08-04T07:04:43.197Z,96494.16
2017-08-04T07:07:09.029Z,96498.44
2017-08-04T07:09:34.843Z,96506.08
2017-08-04T07:12:00.678Z,96499.28
2017-08-04T07:14:26.533Z,96499.48
2017-08-04T07:16:52.397Z,96495.14
2017-08-04T07:19:18.222Z,96508.67
2017-08-04T07:21:44.066Z,96503.30
2017-08-04T07:24:09.921Z,96516.77
2017-08-04T07:26:35.990Z,96516.86
2017-08-04T07:29:01.791Z,96510.84
2017-08-04T07:31:27.721Z,96520.97
2017-08-04T07:33:53.556Z,96522.72
2017-08-04T07:36:19.492Z,96524.44
2017-08-04T07:38:45.386Z,96516.42
2017-08-04T07:41:11.307Z,96514.38
2017-08-04T07:43:37.162Z,96512.60
2017-08-04T07:46:03.053Z,96510.58
2017-08-04T07:48:28.920Z,96510.68
2017-08-04T07:50:54.749Z,96519.94
2017-08-04T07:53:20.542Z,96517.05
2017-08-04T07:55:46.377Z,96499.50
2017-08-04T07:58:12.206Z,96515.76
2017-08-04T08:00:38.028Z,96509.03
2017-08-04T08:03:03.908Z,96514.50
2017-08-04T08:05:29.833Z,96507.14
2017-08-04T08:07:55.745Z,96518.37
2017-08-04T08:10:22.241Z,96516.64
2017-08-04T08:12:48.117Z,96506.73
2017-08-04T08:15:14.000Z,96509.48
2017-08-04T08:17:39.894Z,96512.11
2017-08-04T08:20:05.834Z,96505.86
2017-08-04T08:22:31.644Z,96509.61
2017-08-04T08:24:57.497Z,96514.23
2017-08-04T08:27:23.464Z,96508.94
2017-08-04T08:29:49.305Z,96512.14
2017-08-04T08:32:15.142Z,96504.47
2017-08-04T08:34:40.955Z,96506.08
2017-08-04T08:37:06.770Z,96502.27
2017-08-04T08:39:32.632Z,96504.16
2017-08-04T08:41:58.518Z,96519.66
2017-08-04T08:44:24.344Z,96514.66
2017-08-04T08:46:50.289Z,96511.41
2017-08-04T08:49:16.271Z,96515.45
2017-08-04T08:51:42.098Z,96516.84
2017-08-04T08:54:08.135Z,96527.58
2017-08-04T08:56:34.074Z,96527.44
2017-08-04T08:58:59.905Z,96514.89
2017-08-04T09:01:25.821Z,96526.50
2017-08-04T09:03:51.811Z,96522.68
2017-08-04T09:06:17.812Z,96534.48
2017-08-04T09:08:43.688Z,96524.77
2017-08-04T09:11:09.612Z,96530.44
2017-08-04T09:13:35.401Z,96520.44
2017-08-04T09:16:01.372Z,96524.80
2017-08-04T09:18:27.304Z,96522.58
2017-08-04T09:20:53.132Z,96519.38
2017-08-04T09:23:18.948Z,96531.72
2017-08-04T09:25:44.807Z,96535.50
2017-08-04T09:28:10.700Z,96526.03
2017-08-04T09:30:36.616Z,96521.47
2017-08-04T09:33:02.490Z,96526.66
2017-08-04T09:35:28.388Z,96528.91
2017-08-04T09:37:54.247Z,96519.48
2017-08-04T09:40:20.074Z,96522.48
2017-08-04T09:42:45.864Z,96526.47
2017-08-04T09:45:11.689Z,96520.55
2017-08-04T09:47:37.560Z,96531.91
2017-08-04T09:50:03.427Z,96528.23
2017-08-04T09:52:29.401Z,96531.64
2017-08-04T09:54:55.230Z,96524.91
2017-08-04T09:57:21.172Z,96535.56
2017-08-04T09:59:46.964Z,96539.55
2017-08-04T10:02:12.788Z,96544.96
2017-08-04T10:04:38.619Z,96548.13
2017-08-04T10:07:04.440Z,96544.83
2017-08-04T10:09:30.260Z,96539.46
2017-08-04T10:11:56.082Z,96529.78
2017-08-04T10:14:21.903Z,96531.41
2017-08-04T10:16:47.774Z,96534.44
2017-08-04T10:19:13.622Z,96539.86
2017-08-04T10:21:39.623Z,96531.06
2017-08-04T10:24:05.429Z,96522.73
2017-08-04T10:26:31.272Z,96520.66
2017-08-04T10:28:57.086Z,96523.05
2017-08-04T10:31:22.906Z,96527.41
2017-08-04T10:33:48.731Z,96524.39
2017-08-04T10:36:14.562Z,96523.31
2017-08-04T10:38:40.374Z,96527.54
2017-08-04T10:41:06.171Z,96530.20
2017-08-04T10:43:32.038Z,96527.43
2017-08-04T10:45:58.019Z,96525.66
2017-08-04T10:48:24.095Z,96525.73
2017-08-04T10:50:50.067Z,96522.69
2017-08-04T10:53:15.876Z,96523.21
2017-08-04T10:55:41.692Z,96514.53
2017-08-04T10:58:07.518Z,96510.11
2017-08-04T11:00:33.363Z,96513.10
2017-08-04T11:02:59.164Z,96512.91
2017-08-04T11:05:25.219Z,96513.17
2017-08-04T11:07:51.126Z,96508.91
2017-08-04T11:10:16.933Z,96516.14
2017-08-04T11:12:42.768Z,96514.95
2017-08-04T11:15:08.573Z,96520.88
2017-08-04T11:17:34.456Z,96513.84
2017-08-04T11:20:00.329Z,96511.33
2017-08-04T11:22:26.255Z,96511.79
2017-08-04T11:24:52.122Z,96512.72
2017-08-04T11:27:17.972Z,96513.67
2017-08-04T11:29:43.800Z,96512.99
2017-08-04T11:32:09.647Z,96508.67
2017-08-04T11:34:35.660Z,96510.70
2017-08-04T11:37:01.540Z,96515.28
2017-08-04T11:39:27.358Z,96509.19
2017-08-04T11:41:53.218Z,96510.92
2017-08-04T11:44:19.051Z,96513.14
2017-08-04T11:46:44.861Z,96519.98
2017-08-04T11:49:10.747Z,96517.82
2017-08-04T11:51:36.721Z,96509.48
2017-08-04T11:54:02.602Z,96510.87
2017-08-04T11:56:28.506Z,96523.33
2017-08-04T11:58:54.423Z,96511.97
2017-08-04T12:01:20.296Z,96509.51
2017-08-04T12:03:46.375Z,96518.72
2017-08-04T12:06:12.225Z,96522.44
2017-08-04T12:08:38.091Z,96520.22
2017-08-04T12:11:03.926Z,96507.23
2017-08-04T12:13:30.074Z,96514.25
2017-08-04T12:15:55.960Z,96519.92
2017-08-04T12:18:21.780Z,96515.66
2017-08-04T12:20:47.600Z,96519.28
2017-08-04T12:23:13.636Z,96525.11
2017-08-04T12:25:39.480Z,96516.31
2017-08-04T12:28:05.422Z,96525.69
2017-08-04T12:30:31.319Z,96514.72
2017-08-04T12:32:57.228Z,96518.90
2017-08-04T12:35:23.076Z,96522.22
2017-08-04T12:37:50.160Z,96518.93
2017-08-04T12:40:16.022Z,96523.19
2017-08-04T12:42:41.949Z,96524.31
2017-08-04T12:45:08.184Z,96532.14
2017-08-04T12:47:34.072Z,96529.45
2017-08-04T12:49:59.877Z,96528.90
2017-08-04T12:52:25.706Z,96525.82
2017-08-04T12:54:51.557Z,96529.32
2017-08-04T12:57:17.548Z,96523.89
2017-08-04T12:59:43.595Z,96525.22
2017-08-04T13:02:09.702Z,96524.13
2017-08-04T13:04:35.624Z,96528.73
2017-08-04T13:07:01.648Z,96525.59
2017-08-04T13:09:27.689Z,96526.97
2017-08-04T13:11:53.822Z,96526.12
2017-08-04T13:14:19.740Z,96524.79
2017-08-04T13:16:45.788Z,96529.83
2017-08-04T13:19:11.672Z,96529.14
2017-08-04T13:21:44.351Z,96518.39
2017-08-04T13:24:10.216Z,96525.09
2017-08-04T13:26:36.094Z,96522.75
2017-08-04T13:29:02.026Z,96515.08
2017-08-04T13:31:27.983Z,96519.16
2017-08-04T13:33:53.784Z,96514.73
2017-08-04T13:36:19.642Z,96523.13
2017-08-04T13:38:49.294Z,96516.36
2017-08-04T13:41:22.070Z,96517.49
2017-08-04T13:43:47.880Z,96520.55
2017-08-04T13:46:13.699Z,96516.83
2017-08-04T13:48:39.527Z,96522.20
2017-08-04T13:51:05.363Z,96527.84
2017-08-04T13:53:31.219Z,96522.83
2017-08-04T13:55:57.030Z,96517.55
2017-08-04T13:58:22.884Z,96519.55
2017-08-04T14:00:48.919Z,96521.77
2017-08-04T14:03:14.716Z,96516.80
2017-08-04T14:05:40.583Z,96520.45
2017-08-04T14:08:06.487Z,96521.34
2017-08-04T14:10:32.434Z,96524.06
2017-08-04T14:12:58.321Z,96528.20
2017-08-04T14:15:24.151Z,96524.06
2017-08-04T14:17:49.998Z,96523.17
2017-08-04T14:20:15.800Z,96532.22
2017-08-04T14:22:41.606Z,96534.83
2017-08-04T14:25:07.537Z,96518.87
2017-08-04T14:27:33.340Z,96534.16
2017-08-04T14:29:59.150Z,96542.64
2017-08-04T14:32:25.000Z,96530.58
2017-08-04T14:34:50.969Z,96536.50
2017-08-04T14:37:16.790Z,96529.41
2017-08-04T14:39:42.646Z,96529.19
2017-08-04T14:42:08.560Z,96533.20
2017-08-04T14:44:35.117Z,96527.59
2017-08-04T14:47:01.024Z,96527.19
2017-08-04T14:49:26.962Z,96527.98
2017-08-04T14:51:52.842Z,96524.05
2017-08-04T14:54:18.735Z,96517.86
2017-08-04T14:56:44.647Z,96532.75
2017-08-04T14:59:10.513Z,96523.05
2017-08-04T15:01:36.445Z,96517.20
2017-08-04T15:04:02.503Z,96522.81
2017-08-04T15:06:28.385Z,96520.88
2017-08-04T15:08:54.259Z,96522.98
2017-08-04T15:11:20.087Z,96522.41
2017-08-04T15:13:45.912Z,96519.45
2017-08-04T15:16:11.748Z,96519.81
2017-08-04T15:18:38.762Z,96513.23
2017-08-04T15:21:04.626Z,96515.28
2017-08-04T15:23:30.455Z,96516.90
2017-08-04T15:25:56.356Z,96512.00
2017-08-04T15:28:22.149Z,96508.73
2017-08-04T15:30:47.977Z,96523.11
2017-08-04T15:33:13.921Z,96522.66
2017-08-04T15:35:39.860Z,96518.21
2017-08-04T15:38:05.808Z,96520.87
2017-08-04T15:40:31.635Z,96508.05
2017-08-04T15:42:57.501Z,96509.81
2017-08-04T15:45:23.545Z,96506.17
2017-08-04T15:47:49.455Z,96519.71
2017-08-04T15:50:15.415Z,96517.27
2017-08-04T15:52:41.343Z,96519.33
2017-08-04T15:55:07.249Z,96508.52
2017-08-04T15:57:33.214Z,96522.45
2017-08-04T15:59:59.063Z,96516.28
2017-08-04T16:02:24.981Z,96522.91
2017-08-04T16:04:50.971Z,96520.60
2017-08-04T16:07:16.840Z,96516.10
2017-08-04T16:09:42.756Z,96517.00
2017-08-04T16:12:08.702Z,96523.61
2017-08-04T16:14:34.508Z,96529.66
2017-08-04T16:17:00.396Z,96531.41
2017-08-04T16:19:26.241Z,96529.20
2017-08-04T16:21:52.184Z,96537.91
2017-08-04T16:24:18.061Z,96537.05
2017-08-04T16:26:43.853Z,96538.20
2017-08-04T16:29:09.701Z,96535.14
2017-08-04T16:31:35.504Z,96537.67
2017-08-04T16:34:01.300Z,96542.03
2017-08-04T16:36:27.171Z,96544.47
2017-08-04T16:38:53.141Z,96545.67
2017-08-04T16:41:18.968Z,96545.84
2017-08-04T16:43:44.766Z,96557.80
2017-08-04T16:46:11.009Z,96548.23
2017-08-04T16:48:36.862Z,96552.33
2017-08-04T16:51:02.708Z,96556.64
2017-08-04T16:53:28.638Z,96563.76
2017-08-04T16:55:54.561Z,96562.03
2017-08-04T16:58:20.446Z,96546.96
2017-08-04T17:00:46.316Z,96552.18
2017-08-04T17:03:12.173Z,96553.62
2017-08-04T17:05:37.995Z,96553.70
2017-08-04T17:08:03.836Z,96556.70
2017-08-04T17:10:29.744Z,96549.95
2017-08-04T17:12:55.646Z,96538.41
2017-08-04T17:15:21.628Z,96543.66
2017-08-04T17:17:47.476Z,96525.59
2017-08-04T17:20:13.323Z,96550.78
2017-08-04T17:22:39.357Z,96557.80
2017-08-04T17:25:05.172Z,96556.30
2017-08-04T17:27:31.114Z,96559.21
2017-08-04T17:29:56.904Z,96559.03
2017-08-04T17:32:22.764Z,96553.39
2017-08-04T17:34:48.567Z,96562.30
2017-08-04T17:37:14.380Z,96564.56
2017-08-04T17:39:40.308Z,96559.19
2017-08-04T17:42:06.287Z,96561.07
2017-08-04T17:44:32.102Z,96564.09
2017-08-04T17:46:57.946Z,96563.05
2017-08-04T17:49:23.748Z,96562.72
2017-08-04T17:51:49.563Z,96559.27
2017-08-04T17:54:15.397Z,96564.41
2017-08-04T17:56:41.242Z,96556.92
2017-08-04T17:59:07.149Z,96560.50
2017-08-04T18:01:32.981Z,96574.56
2017-08-04T18:03:58.776Z,96574.48
2017-08-04T18:06:24.716Z,96572.62
2017-08-04T18:08:50.682Z,96573.78
2017-08-04T18:11:16.486Z,96570.16
2017-08-04T18:13:42.289Z,96567.38
2017-08-04T18:16:08.225Z,96567.80
2017-08-04T18:18:34.125Z,96570.36
2017-08-04T18:21:00.017Z,96564.14
2017-08-04T18:23:26.051Z,96568.25
2017-08-04T18:25:51.840Z,96563.48
2017-08-04T18:28:17.697Z,96566.79
2017-08-04T18:30:43.615Z,96566.14
2017-08-04T18:33:09.542Z,96569.10
2017-08-04T18:35:35.462Z,96571.44
2017-08-04T18:38:02.081Z,96571.62
2017-08-04T18:40:27.946Z,96570.77
2017-08-04T18:42:53.718Z,96577.00
2017-08-04T18:45:19.554Z,96574.25
2017-08-04T18:47:45.382Z,96581.46
2017-08-04T18:50:11.285Z,96580.16
2017-08-04T18:52:37.196Z,96592.37
2017-08-04T18:55:03.193Z,96587.48
2017-08-04T18:57:29.094Z,96599.74
2017-08-04T18:59:54.948Z,96601.64
2017-08-04T19:02:20.863Z,96603.91
2017-08-04T19:04:46.744Z,96606.54
2017-08-04T19:07:12.636Z,96606.31
2017-08-04T19:09:38.678Z,96614.14
2017-08-04T19:12:04.584Z,96623.14
2017-08-04T19:14:33.889Z,96615.85
2017-08-04T19:16:59.786Z,96623.14
2017-08-04T19:19:25.613Z,96615.80
2017-08-04T19:21:51.602Z,96619.20
2017-08-04T19:24:17.459Z,96632.78
2017-08-04T19:26:43.469Z,96634.39
2017-08-04T19:29:09.491Z,96637.95
2017-08-04T19:31:35.316Z,96642.59
2017-08-04T19:34:01.207Z,96642.59
2017-08-04T19:36:27.192Z,96640.66
2017-08-04T19:38:53.087Z,96641.73
2017-08-04T19:41:19.030Z,96642.06
2017-08-04T19:43:44.980Z,96644.80
2017-08-04T19:46:10.823Z,96643.20
2017-08-04T19:48:36.655Z,96647.73
2017-08-04T19:51:02.731Z,96647.33
2017-08-04T19:53:28.659Z,96648.75
2017-08-04T19:55:54.521Z,96654.69
2017-08-04T19:58:21.313Z,96656.77
2017-08-04T20:00:47.216Z,96666.14
2017-08-04T20:03:13.116Z,96664.25
2017-08-04T20:05:38.964Z,96674.80
2017-08-04T20:08:04.828Z,96668.58
2017-08-04T20:10:30.658Z,96675.28
2017-08-04T20:12:56.531Z,96684.45
2017-08-04T20:15:22.415Z,96682.06
2017-08-04T20:17:48.250Z,96690.70
2017-08-04T20:20:14.106Z,96680.13
2017-08-04T20:22:39.931Z,96686.57
2017-08-04T20:25:05.802Z,96682.35
2017-08-04T20:27:31.729Z,96685.30
2017-08-04T20:29:57.625Z,96684.11
2017-08-04T20:32:23.487Z,96689.27
2017-08-04T20:34:49.479Z,96692.60
2017-08-04T20:37:15.393Z,96694.13
2017-08-04T20:39:41.249Z,96700.31
2017-08-04T20:42:07.123Z,96697.70
2017-08-04T20:44:33.152Z,96689.30
2017-08-04T20:46:59.076Z,96692.28
2017-08-04T20:49:24.965Z,96692.95
2017-08-04T20:51:50.805Z,96690.98
2017-08-04T20:54:16.863Z,96689.75
2017-08-04T20:56:42.772Z,96685.40
2017-08-04T20:59:08.658Z,96682.85
2017-08-04T21:01:34.509Z,96690.83
2017-08-04T21:04:00.434Z,96688.90
2017-08-04T21:06:26.298Z,96691.52
2017-08-04T21:08:52.160Z,96697.49
2017-08-04T21:11:18.163Z,96695.14
2017-08-04T21:13:44.048Z,96700.55
2017-08-04T21:16:09.960Z,96703.27
2017-08-04T21:18:35.817Z,96701.96
2017-08-04T21:21:01.911Z,96705.58
2017-08-04T21:23:27.815Z,96708.47
2017-08-04T21:25:53.657Z,96709.17
2017-08-04T21:28:19.499Z,96708.13
2017-08-04T21:30:45.307Z,96713.56
2017-08-04T21:33:11.187Z,96717.34
2017-08-04T21:35:37.090Z,96716.36
2017-08-04T21:38:02.960Z,96714.50
2017-08-04T21:40:28.865Z,96713.61
2017-08-04T21:42:54.760Z,96712.38
2017-08-04T21:45:20.589Z,96713.89
2017-08-04T21:47:46.458Z,96713.59
2017-08-04T21:50:12.281Z,96725.06
2017-08-04T21:52:38.313Z,96718.08
2017-08-04T21:55:04.175Z,96724.84
2017-08-04T21:57:30.081Z,96721.92
2017-08-04T21:59:56.007Z,96721.94
2017-08-04T22:02:21.920Z,96723.87
2017-08-04T22:04:47.791Z,96730.58
2017-08-04T22:07:14.212Z,96730.91
2017-08-04T22:09:40.044Z,96728.11
2017-08-04T22:12:05.908Z,96725.81
2017-08-04T22:14:31.863Z,96733.84
2017-08-04T22:16:57.737Z,96728.55
2017-08-04T22:19:23.569Z,96732.14
2017-08-04T22:21:49.514Z,96726.75
2017-08-04T22:24:15.347Z,96717.03
2017-08-04T22:26:41.209Z,96725.22
2017-08-04T22:29:07.054Z,96719.53
2017-08-04T22:31:32.975Z,96719.08
2017-08-04T22:33:58.839Z,96723.59
2017-08-04T22:36:24.696Z,96720.70
2017-08-04T22:38:50.551Z,96722.48
2017-08-04T22:41:16.471Z,96719.06
2017-08-04T22:43:42.412Z,96721.34
2017-08-04T22:46:08.289Z,96715.16
2017-08-04T22:48:34.123Z,96717.02
2017-08-04T22:51:00.027Z,96709.72
2017-08-04T22:53:25.943Z,96720.30
2017-08-04T22:55:51.877Z,96717.92
2017-08-04T22:58:17.799Z,96724.74
2017-08-04T23:00:43.702Z,96715.56
2017-08-04T23:03:09.564Z,96716.16
2017-08-04T23:05:35.488Z,96720.28
2017-08-04T23:08:01.371Z,96716.26
2017-08-04T23:10:27.291Z,96719.98
2017-08-04T23:12:53.151Z,96702.56
2017-08-04T23:15:19.022Z,96712.31
2017-08-04T23:17:44.845Z,96709.81
2017-08-04T23:20:10.675Z,96709.98
2017-08-04T23:22:36.576Z,96708.89
2017-08-04T23:25:02.496Z,96706.38
2017-08-04T23:27:28.317Z,96713.25
2017-08-04T23:29:54.363Z,96713.25
2017-08-04T23:32:20.269Z,96713.55
2017-08-04T23:34:46.131Z,96710.09
2017-08-04T23:37:11.986Z,96710.55
2017-08-04T23:39:37.800Z,96707.16
2017-08-04T23:42:03.666Z,96704.42
2017-08-04T23:44:29.586Z,96703.82
2017-08-04T23:46:55.437Z,96702.95
2017-08-04T23:49:21.333Z,96701.25
2017-08-04T23:51:47.238Z,96704.83
2017-08-04T23:54:13.056Z,96688.32
2017-08-04T23:56:38.996Z,96701.73
2017-08-04T23:59:04.888Z,96698.71
